Time;durP1;ratioP1;P1;durP2;ratioP2;P2;SDS_P1;SDS_P2;PMS_P1;PMS_P2;Temp;Humidity;BMP_temperature;BMP_pressure;BME280_temperature;BME280_humidity;BME280_pressure;Samples;Min_cycle;Max_cycle;Signal;HPM_P1;HPM_P2
2024/02/03 00:02:17;;;;;;;31.58;19.45;;;9.00;99.90;;;;;;5069981;28;20056;-57
2024/02/03 00:04:43;;;;;;;29.85;18.30;;;9.10;99.90;;;;;;5073030;28;20052;-57
2024/02/03 00:07:09;;;;;;;33.28;19.17;;;9.10;99.90;;;;;;5071645;28;20028;-58
2024/02/03 00:09:34;;;;;;;29.63;19.42;;;9.10;99.90;;;;;;5071464;28;20614;-58
2024/02/03 00:12:00;;;;;;;34.70;19.73;;;9.10;99.90;;;;;;5071375;28;20020;-57
2024/02/03 00:14:26;;;;;;;37.38;20.77;;;9.20;99.90;;;;;;5072715;28;20027;-57
2024/02/03 00:16:52;;;;;;;33.75;20.00;;;9.20;99.90;;;;;;5071298;28;20386;-57
2024/02/03 00:19:18;;;;;;;34.28;21.17;;;9.20;99.90;;;;;;5072896;28;20481;-57
2024/02/03 00:21:43;;;;;;;34.55;20.63;;;9.20;99.90;;;;;;5072319;28;20510;-57
2024/02/03 00:24:09;;;;;;;39.75;19.90;;;9.30;99.90;;;;;;5072437;28;20024;-58
2024/02/03 00:26:35;;;;;;;32.63;20.50;;;9.30;99.90;;;;;;5070092;28;20049;-57
2024/02/03 00:29:00;;;;;;;31.10;20.23;;;9.30;99.90;;;;;;5071995;28;20055;-57
2024/02/03 00:31:26;;;;;;;35.47;21.42;;;9.30;99.90;;;;;;5071960;28;20128;-56
2024/02/03 00:33:52;;;;;;;34.45;21.08;;;9.30;99.90;;;;;;5070752;28;20124;-57
2024/02/03 00:36:25;;;;;;;32.75;20.40;;;9.30;99.90;;;;;;5069702;28;20131;-57
2024/02/03 00:38:51;;;;;;;38.45;20.67;;;9.30;99.90;;;;;;5070009;28;20114;-57
2024/02/03 00:41:16;;;;;;;40.78;22.75;;;9.40;99.90;;;;;;5067172;28;20021;-57
2024/02/03 00:43:42;;;;;;;42.25;21.15;;;9.30;99.90;;;;;;5070300;28;20025;-57
2024/02/03 00:46:10;;;;;;;34.88;22.52;;;9.40;99.90;;;;;;5070456;28;20082;-58
2024/02/03 00:48:35;;;;;;;39.83;20.83;;;9.40;99.90;;;;;;5070556;28;20083;-57
2024/02/03 00:51:01;;;;;;;34.35;20.40;;;9.40;99.90;;;;;;5070370;28;20024;-58
2024/02/03 00:53:26;;;;;;;37.05;21.75;;;9.40;99.90;;;;;;5068679;28;20056;-56
2024/02/03 00:55:52;;;;;;;37.85;22.27;;;9.40;99.90;;;;;;5070451;28;20103;-56
2024/02/03 00:58:17;;;;;;;36.35;22.73;;;9.40;99.90;;;;;;5071021;28;20423;-57
2024/02/03 01:00:43;;;;;;;35.88;22.17;;;9.40;99.90;;;;;;5070013;28;20040;-56
2024/02/03 01:03:08;;;;;;;37.08;22.40;;;9.40;99.90;;;;;;5070052;28;20024;-56
2024/02/03 01:05:34;;;;;;;37.38;21.27;;;9.40;99.90;;;;;;5070324;28;20064;-57
2024/02/03 01:08:00;;;;;;;36.05;21.42;;;9.40;99.90;;;;;;5070803;28;20680;-55
2024/02/03 01:10:26;;;;;;;40.33;21.63;;;9.50;99.90;;;;;;5069126;28;20025;-56
2024/02/03 01:12:52;;;;;;;37.70;20.85;;;9.50;99.90;;;;;;5069728;28;20024;-57
2024/02/03 01:15:18;;;;;;;39.17;22.52;;;9.50;99.90;;;;;;5069284;28;20607;-57
2024/02/03 01:17:43;;;;;;;38.92;21.70;;;9.50;99.90;;;;;;5069876;28;20424;-57
2024/02/03 01:20:10;;;;;;;40.05;21.83;;;9.50;99.90;;;;;;5070027;28;20020;-56
2024/02/03 01:22:35;;;;;;;33.72;20.83;;;9.50;99.90;;;;;;5069098;28;20032;-57
2024/02/03 01:25:01;;;;;;;35.00;21.58;;;9.50;99.90;;;;;;5069937;28;20658;-57
2024/02/03 01:27:26;;;;;;;38.45;21.45;;;9.60;99.90;;;;;;5069901;28;20028;-58
2024/02/03 01:29:53;;;;;;;37.17;20.92;;;9.60;99.90;;;;;;5070419;28;20016;-56
2024/02/03 01:32:19;;;;;;;34.58;20.95;;;9.60;99.90;;;;;;5069869;28;20059;-57
2024/02/03 01:34:44;;;;;;;35.55;20.50;;;9.60;99.90;;;;;;5069669;28;20025;-56
2024/02/03 01:37:10;;;;;;;34.85;21.75;;;9.60;99.90;;;;;;5069153;28;20029;-57
2024/02/03 01:39:35;;;;;;;37.90;22.95;;;9.60;99.90;;;;;;5069540;28;20043;-56
2024/02/03 01:42:01;;;;;;;38.90;21.80;;;9.60;99.90;;;;;;5069366;28;20017;-57
2024/02/03 01:44:31;;;;;;;35.63;21.63;;;9.60;99.90;;;;;;5069407;28;20056;-57
2024/02/03 01:46:57;;;;;;;35.47;21.60;;;9.70;99.90;;;;;;5069562;28;20016;-57
2024/02/03 01:49:22;;;;;;;32.55;20.90;;;9.70;99.90;;;;;;5069672;28;20317;-57
2024/02/03 01:51:48;;;;;;;36.63;21.58;;;9.70;99.90;;;;;;5069557;28;20017;-57
2024/02/03 01:54:14;;;;;;;42.47;21.45;;;9.70;99.90;;;;;;5069590;28;20081;-57
2024/02/03 01:56:42;;;;;;;39.70;21.60;;;9.70;99.90;;;;;;5069180;28;20032;-57
2024/02/03 01:59:09;;;;;;;34.25;21.65;;;9.70;99.90;;;;;;5068329;28;20493;-56
2024/02/03 02:01:35;;;;;;;38.60;21.92;;;9.70;99.90;;;;;;5069449;28;20032;-57
2024/02/03 02:04:00;;;;;;;35.30;22.15;;;9.70;99.90;;;;;;5069146;28;20045;-57
2024/02/03 02:06:26;;;;;;;36.53;20.38;;;9.80;99.90;;;;;;5068176;28;20016;-57
2024/02/03 02:08:51;;;;;;;37.70;21.42;;;9.80;99.90;;;;;;5077853;28;20013;-57
2024/02/03 02:11:19;;;;;;;38.83;21.75;;;9.80;99.90;;;;;;5069834;28;20028;-57
2024/02/03 02:13:45;;;;;;;32.58;21.17;;;9.80;99.90;;;;;;5069106;28;20711;-55
2024/02/03 02:16:10;;;;;;;35.25;20.27;;;9.80;99.90;;;;;;5069442;28;20032;-54
2024/02/03 02:18:36;;;;;;;29.25;19.13;;;9.90;99.90;;;;;;5076179;28;20028;-55
2024/02/03 02:21:01;;;;;;;34.38;20.33;;;9.90;99.90;;;;;;5069760;28;20028;-55
2024/02/03 02:23:27;;;;;;;34.60;21.00;;;9.90;99.90;;;;;;5069103;28;20108;-56
2024/02/03 02:25:53;;;;;;;37.78;21.45;;;9.90;99.90;;;;;;5069102;28;20020;-55
2024/02/03 02:28:18;;;;;;;34.28;19.52;;;9.90;99.90;;;;;;5069155;28;20088;-55
2024/02/03 02:30:44;;;;;;;33.20;20.08;;;9.90;99.90;;;;;;5068785;28;20025;-57
2024/02/03 02:33:09;;;;;;;32.67;20.13;;;9.90;99.90;;;;;;5068883;28;20012;-57
2024/02/03 02:35:36;;;;;;;33.47;20.10;;;9.90;99.90;;;;;;5072462;28;20062;-55
2024/02/03 02:38:03;;;;;;;33.30;20.70;;;9.90;99.90;;;;;;5073152;28;20027;-56
2024/02/03 02:40:28;;;;;;;31.67;20.08;;;9.90;99.90;;;;;;5073063;28;20036;-56
2024/02/03 02:42:54;;;;;;;32.42;20.95;;;9.90;99.90;;;;;;5071536;28;20097;-55
2024/02/03 02:45:20;;;;;;;31.13;20.42;;;9.90;99.90;;;;;;5076133;28;20019;-56
2024/02/03 02:47:46;;;;;;;29.95;19.88;;;9.80;99.90;;;;;;5075118;28;20024;-55
2024/02/03 02:50:11;;;;;;;36.35;21.77;;;9.80;99.90;;;;;;5073234;28;20020;-56
2024/02/03 02:52:37;;;;;;;35.63;21.08;;;9.80;99.90;;;;;;5072886;28;20458;-56
2024/02/03 02:55:03;;;;;;;34.15;20.90;;;9.80;99.90;;;;;;5075569;28;20097;-54
2024/02/03 02:57:28;;;;;;;36.88;23.40;;;9.70;99.90;;;;;;5084445;28;20016;-55
2024/02/03 02:59:54;;;;;;;36.80;23.08;;;9.70;99.90;;;;;;5074322;28;20478;-54
2024/02/03 03:02:19;;;;;;;36.08;22.92;;;9.70;99.90;;;;;;5077784;28;20031;-55
2024/02/03 03:04:45;;;;;;;38.35;23.23;;;9.70;99.90;;;;;;5075577;28;20050;-56
2024/02/03 03:07:14;;;;;;;44.00;24.05;;;9.70;99.90;;;;;;5073425;28;20032;-54
2024/02/03 03:09:41;;;;;;;45.33;25.10;;;9.60;99.90;;;;;;5072805;28;20013;-54
2024/02/03 03:12:08;;;;;;;40.65;23.60;;;9.60;99.90;;;;;;5072857;28;20526;-54
2024/02/03 03:14:33;;;;;;;45.58;26.30;;;9.60;99.90;;;;;;5076225;28;20028;-55
2024/02/03 03:16:59;;;;;;;45.47;25.92;;;9.60;99.90;;;;;;5072091;28;20040;-55
2024/02/03 03:19:24;;;;;;;48.75;24.98;;;9.50;99.90;;;;;;5072989;28;20028;-55
2024/02/03 03:21:50;;;;;;;44.63;26.50;;;9.50;99.90;;;;;;5072105;28;20036;-55
2024/02/03 03:24:16;;;;;;;44.78;24.90;;;9.50;99.90;;;;;;5071980;28;20033;-53
2024/02/03 03:26:44;;;;;;;44.20;26.40;;;9.50;99.90;;;;;;5072165;28;20017;-55
2024/02/03 03:29:11;;;;;;;41.65;25.48;;;9.50;99.90;;;;;;5069956;28;20027;-54
2024/02/03 03:31:38;;;;;;;49.25;25.00;;;9.40;99.90;;;;;;5072180;28;20106;-55
2024/02/03 03:34:03;;;;;;;44.65;25.45;;;9.50;99.90;;;;;;5071596;28;20046;-55
2024/02/03 03:36:29;;;;;;;46.53;25.73;;;9.50;99.90;;;;;;5072150;28;20494;-55
2024/02/03 03:38:54;;;;;;;41.80;25.17;;;9.50;99.90;;;;;;5073935;28;20495;-55
2024/02/03 03:41:20;;;;;;;41.53;24.85;;;9.40;99.90;;;;;;5071970;28;20035;-55
2024/02/03 03:43:47;;;;;;;48.92;25.23;;;9.40;99.90;;;;;;5070457;28;20039;-54
2024/02/03 03:46:13;;;;;;;40.63;25.33;;;9.40;99.90;;;;;;5069074;28;20385;-54
2024/02/03 03:48:39;;;;;;;43.10;25.58;;;9.40;99.90;;;;;;5071580;28;20024;-54
2024/02/03 03:51:04;;;;;;;45.22;25.85;;;9.40;99.90;;;;;;5070645;28;20047;-54
2024/02/03 03:53:30;;;;;;;43.35;26.85;;;9.40;99.90;;;;;;5069519;28;20031;-56
2024/02/03 03:55:55;;;;;;;44.50;25.63;;;9.30;99.90;;;;;;5072703;28;20048;-55
2024/02/03 03:58:21;;;;;;;54.75;29.23;;;9.30;99.90;;;;;;5070296;28;20082;-55
2024/02/03 04:00:47;;;;;;;45.35;26.75;;;9.30;99.90;;;;;;5069303;28;20025;-55
2024/02/03 04:03:13;;;;;;;44.03;26.42;;;9.40;99.90;;;;;;5071037;28;20051;-54
2024/02/03 04:05:38;;;;;;;45.33;25.90;;;9.40;99.90;;;;;;5071444;28;20024;-55
2024/02/03 04:08:06;;;;;;;48.47;28.17;;;9.30;99.90;;;;;;5070076;28;20020;-56
2024/02/03 04:10:32;;;;;;;50.45;26.48;;;9.20;99.90;;;;;;5071439;28;20442;-55
2024/02/03 04:12:57;;;;;;;49.45;26.42;;;9.30;99.90;;;;;;5070969;28;20058;-53
2024/02/03 04:15:23;;;;;;;48.47;27.33;;;9.20;99.90;;;;;;5071566;28;20016;-54
2024/02/03 04:17:50;;;;;;;43.35;25.88;;;9.20;99.90;;;;;;5071371;28;20017;-55
2024/02/03 04:20:15;;;;;;;50.72;26.73;;;9.20;99.90;;;;;;5071303;28;20103;-55
2024/02/03 04:22:41;;;;;;;48.75;26.73;;;9.20;99.90;;;;;;5071706;28;20112;-56
2024/02/03 04:25:07;;;;;;;45.17;24.48;;;9.20;99.90;;;;;;5072128;28;20043;-59
2024/02/03 04:27:33;;;;;;;46.47;25.95;;;9.20;99.90;;;;;;5070952;28;20016;-55
2024/02/03 04:29:59;;;;;;;44.70;25.55;;;9.20;99.90;;;;;;5072058;28;20062;-55
2024/02/03 04:32:25;;;;;;;43.80;24.15;;;9.20;99.90;;;;;;5075974;28;20078;-55
2024/02/03 04:34:50;;;;;;;48.00;26.73;;;9.20;99.90;;;;;;5080043;28;20054;-54
2024/02/03 04:37:16;;;;;;;39.15;23.52;;;9.20;99.90;;;;;;5071280;28;20021;-54
2024/02/03 04:39:42;;;;;;;44.92;22.65;;;9.20;99.90;;;;;;5069638;28;20539;-54
2024/02/03 04:42:07;;;;;;;45.22;25.58;;;9.10;99.90;;;;;;5070674;28;20031;-55
2024/02/03 04:44:33;;;;;;;45.15;24.45;;;9.10;99.90;;;;;;5070940;28;20025;-56
2024/02/03 04:46:59;;;;;;;49.15;26.05;;;9.10;99.90;;;;;;5069601;28;20488;-57
2024/02/03 04:49:24;;;;;;;46.42;24.20;;;9.10;99.90;;;;;;5077812;28;20025;-55
2024/02/03 04:51:51;;;;;;;45.63;24.55;;;9.10;99.90;;;;;;5073617;28;20028;-56
2024/02/03 04:54:17;;;;;;;42.00;22.88;;;9.10;99.90;;;;;;5064336;28;20043;-55
2024/02/03 04:56:43;;;;;;;48.22;25.33;;;9.10;99.90;;;;;;5070006;28;20020;-55
2024/02/03 04:59:08;;;;;;;45.30;22.98;;;9.10;99.90;;;;;;5070866;28;20116;-55
2024/02/03 05:01:35;;;;;;;43.17;21.80;;;9.10;99.90;;;;;;5070995;28;20028;-55
2024/02/03 05:04:00;;;;;;;44.03;23.52;;;9.10;99.90;;;;;;5069156;28;20390;-55
2024/02/03 05:06:26;;;;;;;42.35;21.77;;;9.10;99.90;;;;;;5070554;28;20031;-55
2024/02/03 05:08:53;;;;;;;38.40;21.70;;;9.20;99.90;;;;;;5076947;28;20020;-55
2024/02/03 05:11:19;;;;;;;37.78;20.77;;;9.20;99.90;;;;;;5064292;28;20028;-56
2024/02/03 05:13:44;;;;;;;36.03;20.60;;;9.20;99.90;;;;;;5070097;28;20020;-55
2024/02/03 05:16:10;;;;;;;35.85;19.63;;;9.20;99.90;;;;;;5076597;28;20024;-55
2024/02/03 05:18:35;;;;;;;37.53;20.13;;;9.20;99.90;;;;;;5072443;28;20032;-56
2024/02/03 05:21:01;;;;;;;37.33;20.30;;;9.20;99.90;;;;;;5070210;28;20695;-56
2024/02/03 05:23:27;;;;;;;42.92;19.27;;;9.20;99.90;;;;;;5069915;28;20396;-54
2024/02/03 05:25:52;;;;;;;31.30;18.80;;;9.20;99.90;;;;;;5070318;28;20024;-55
2024/02/03 05:28:18;;;;;;;32.67;18.67;;;9.20;99.90;;;;;;5079984;28;20040;-54
2024/02/03 05:30:44;;;;;;;32.67;18.70;;;9.20;99.90;;;;;;5072926;28;20039;-55
2024/02/03 05:33:09;;;;;;;32.00;18.23;;;9.20;99.90;;;;;;5071941;28;20021;-57
2024/02/03 05:35:35;;;;;;;29.63;17.55;;;9.30;99.90;;;;;;5074328;28;20021;-55
2024/02/03 05:38:00;;;;;;;31.98;18.17;;;9.20;99.90;;;;;;5076007;28;20040;-55
2024/02/03 05:40:26;;;;;;;27.15;16.70;;;9.20;99.90;;;;;;5069738;28;20040;-54
2024/02/03 05:42:52;;;;;;;32.97;17.52;;;9.30;99.90;;;;;;5069027;28;20036;-53
2024/02/03 05:45:19;;;;;;;28.98;16.85;;;9.30;99.90;;;;;;5069439;28;20095;-54
2024/02/03 05:47:46;;;;;;;28.70;16.42;;;9.30;99.90;;;;;;5069756;28;20036;-56
2024/02/03 05:50:12;;;;;;;29.60;16.08;;;9.30;99.90;;;;;;5069825;28;20389;-57
2024/02/03 05:52:37;;;;;;;30.13;15.93;;;9.30;99.90;;;;;;5069635;28;20095;-56
2024/02/03 05:55:03;;;;;;;28.63;16.92;;;9.30;99.90;;;;;;5069467;28;20048;-56
2024/02/03 05:57:29;;;;;;;24.75;15.45;;;9.40;99.90;;;;;;5069450;28;20031;-56
2024/02/03 05:59:55;;;;;;;25.75;15.85;;;9.40;99.90;;;;;;5078051;28;20103;-56
2024/02/03 06:02:20;;;;;;;26.73;15.32;;;9.30;99.90;;;;;;5068810;28;20025;-56
2024/02/03 06:04:46;;;;;;;29.30;15.70;;;9.30;99.90;;;;;;5069272;28;20482;-56
2024/02/03 06:07:12;;;;;;;28.60;15.82;;;9.30;99.90;;;;;;5067974;28;20047;-56
2024/02/03 06:09:38;;;;;;;24.52;14.98;;;9.30;99.90;;;;;;5069336;28;20024;-56
2024/02/03 06:12:04;;;;;;;30.35;15.95;;;9.30;99.90;;;;;;5068631;28;20111;-56
2024/02/03 06:14:30;;;;;;;27.88;15.70;;;9.30;99.90;;;;;;5075631;28;20028;-56
2024/02/03 06:16:56;;;;;;;30.75;16.10;;;9.30;99.90;;;;;;5075226;28;20024;-57
2024/02/03 06:19:21;;;;;;;28.02;15.77;;;9.30;99.90;;;;;;5069077;28;20438;-56
2024/02/03 06:21:48;;;;;;;26.90;15.70;;;9.30;99.90;;;;;;5069376;28;20036;-56
2024/02/03 06:24:14;;;;;;;26.50;15.88;;;9.30;99.90;;;;;;5069135;28;20441;-56
2024/02/03 06:26:40;;;;;;;25.92;15.45;;;9.30;99.90;;;;;;5068002;28;20025;-56
2024/02/03 06:29:07;;;;;;;25.55;14.90;;;9.30;99.90;;;;;;5068203;28;20504;-56
2024/02/03 06:31:32;;;;;;;24.27;15.00;;;9.30;99.90;;;;;;5075296;28;20052;-56
2024/02/03 06:33:58;;;;;;;23.83;14.75;;;9.30;99.90;;;;;;5068960;28;20215;-56
2024/02/03 06:36:23;;;;;;;25.23;15.50;;;9.30;99.90;;;;;;5068545;28;20028;-56
2024/02/03 06:38:49;;;;;;;24.45;14.45;;;9.30;99.90;;;;;;5069157;28;20371;-56
2024/02/03 06:41:16;;;;;;;22.55;14.23;;;9.30;99.90;;;;;;5067683;28;20077;-56
2024/02/03 06:43:42;;;;;;;22.83;13.93;;;9.30;99.90;;;;;;5074649;28;20082;-56
2024/02/03 06:46:08;;;;;;;24.10;14.13;;;9.30;99.90;;;;;;5069277;28;20052;-56
2024/02/03 06:48:33;;;;;;;21.98;13.60;;;9.30;99.90;;;;;;5069366;28;20024;-56
2024/02/03 06:50:59;;;;;;;23.58;14.55;;;9.30;99.90;;;;;;5074862;28;20024;-56
2024/02/03 06:53:25;;;;;;;22.23;13.13;;;9.30;99.90;;;;;;5068903;28;20020;-56
2024/02/03 06:55:50;;;;;;;22.60;13.73;;;9.20;99.90;;;;;;5069216;28;20052;-56
2024/02/03 06:58:16;;;;;;;22.42;13.38;;;9.20;99.90;;;;;;5071168;28;20484;-56
2024/02/03 07:00:42;;;;;;;19.98;12.23;;;9.30;99.90;;;;;;5071470;28;20169;-56
2024/02/03 07:03:07;;;;;;;21.40;13.35;;;9.20;99.90;;;;;;5069356;28;20094;-57
2024/02/03 07:05:33;;;;;;;25.98;14.35;;;9.30;99.90;;;;;;5077844;28;20016;-57
2024/02/03 07:08:01;;;;;;;20.83;12.88;;;9.20;99.90;;;;;;5069733;28;20572;-57
2024/02/03 07:10:26;;;;;;;22.20;12.65;;;9.20;99.90;;;;;;5063630;28;20023;-57
2024/02/03 07:12:52;;;;;;;24.10;13.10;;;9.30;99.90;;;;;;5073925;28;20028;-57
2024/02/03 07:15:18;;;;;;;18.55;11.38;;;9.30;99.90;;;;;;5071325;28;20405;-57
2024/02/03 07:17:44;;;;;;;20.40;12.45;;;9.30;99.90;;;;;;5071581;28;20055;-58
2024/02/03 07:20:10;;;;;;;18.85;12.27;;;9.30;99.90;;;;;;5070714;28;20056;-57
2024/02/03 07:22:36;;;;;;;18.33;11.25;;;9.30;99.90;;;;;;5076084;28;20031;-57
2024/02/03 07:25:03;;;;;;;18.23;11.00;;;9.30;99.90;;;;;;5072467;28;20017;-57
2024/02/03 07:27:29;;;;;;;17.88;10.60;;;9.30;99.90;;;;;;5067593;28;20020;-58
2024/02/03 07:29:54;;;;;;;16.73;10.25;;;9.30;99.90;;;;;;5077538;28;20103;-57
2024/02/03 07:32:20;;;;;;;14.23;9.88;;;9.30;99.90;;;;;;5071798;28;20025;-57
2024/02/03 07:34:45;;;;;;;15.73;9.38;;;9.30;99.90;;;;;;5077398;28;20480;-57
2024/02/03 07:37:12;;;;;;;15.65;10.15;;;9.30;99.90;;;;;;5072255;28;20032;-57
2024/02/03 07:39:38;;;;;;;14.95;9.65;;;9.30;99.90;;;;;;5071826;28;20378;-57
2024/02/03 07:42:04;;;;;;;19.65;10.85;;;9.30;99.90;;;;;;5071514;28;20033;-57
2024/02/03 07:44:31;;;;;;;14.13;9.32;;;9.30;99.90;;;;;;5071827;28;20122;-57
2024/02/03 07:46:57;;;;;;;16.17;9.98;;;9.30;99.90;;;;;;5071909;28;20450;-57
2024/02/03 07:49:24;;;;;;;14.75;9.52;;;9.30;99.90;;;;;;5072071;28;20021;-57
2024/02/03 07:51:49;;;;;;;14.52;9.30;;;9.30;99.90;;;;;;5071753;28;20017;-57
2024/02/03 07:54:15;;;;;;;16.38;9.73;;;9.40;99.90;;;;;;5071862;28;20077;-57
2024/02/03 07:56:40;;;;;;;19.80;11.70;;;9.30;99.90;;;;;;5072154;28;20021;-57
2024/02/03 07:59:06;;;;;;;19.70;11.57;;;9.40;99.90;;;;;;5076695;28;20078;-57
2024/02/03 08:01:31;;;;;;;15.85;9.75;;;9.40;99.90;;;;;;5072046;28;20032;-57
2024/02/03 08:03:57;;;;;;;17.10;9.65;;;9.40;99.90;;;;;;5076228;28;20030;-57
2024/02/03 08:06:23;;;;;;;16.88;10.70;;;9.40;99.90;;;;;;5076456;28;20056;-57
2024/02/03 08:08:48;;;;;;;16.35;10.23;;;9.40;99.90;;;;;;5071938;28;20016;-57
2024/02/03 08:11:14;;;;;;;18.55;10.77;;;9.40;99.90;;;;;;5072129;28;20025;-57
2024/02/03 08:13:39;;;;;;;21.42;11.43;;;9.40;99.90;;;;;;5071759;28;20079;-57
2024/02/03 08:16:06;;;;;;;20.42;11.55;;;9.40;99.90;;;;;;5070477;28;20029;-57
2024/02/03 08:18:32;;;;;;;15.35;9.65;;;9.40;99.90;;;;;;5068026;28;20432;-57
2024/02/03 08:20:58;;;;;;;16.65;10.20;;;9.40;99.90;;;;;;5076830;28;20056;-56
2024/02/03 08:23:24;;;;;;;17.70;11.32;;;9.40;99.90;;;;;;5071827;28;20028;-55
2024/02/03 08:25:50;;;;;;;17.95;11.60;;;9.40;99.90;;;;;;5072070;28;20039;-55
2024/02/03 08:28:15;;;;;;;19.10;11.32;;;9.40;99.90;;;;;;5071858;28;20060;-55
2024/02/03 08:30:41;;;;;;;18.70;12.05;;;9.40;99.90;;;;;;5075739;28;20052;-56
2024/02/03 08:33:07;;;;;;;22.02;12.40;;;9.40;99.90;;;;;;5070191;28;20465;-57
2024/02/03 08:35:33;;;;;;;18.10;11.38;;;9.50;99.90;;;;;;5071549;28;20044;-56
2024/02/03 08:37:58;;;;;;;20.08;12.13;;;9.40;99.90;;;;;;5071377;28;20033;-57
2024/02/03 08:40:24;;;;;;;21.10;12.55;;;9.50;99.90;;;;;;5073345;28;20032;-56
2024/02/03 08:42:49;;;;;;;18.27;12.35;;;9.50;99.90;;;;;;5073189;28;20027;-56
2024/02/03 08:45:16;;;;;;;23.10;13.25;;;9.50;99.90;;;;;;5071219;28;20421;-56
2024/02/03 08:47:42;;;;;;;19.42;12.23;;;9.50;99.90;;;;;;5075771;28;20020;-56
2024/02/03 08:50:08;;;;;;;21.95;12.63;;;9.50;99.90;;;;;;5071510;28;20052;-57
2024/02/03 08:52:34;;;;;;;21.00;13.20;;;9.50;99.90;;;;;;5066711;28;20035;-56
2024/02/03 08:55:00;;;;;;;21.30;11.93;;;9.50;99.90;;;;;;5074095;28;20170;-56
2024/02/03 08:57:26;;;;;;;18.65;11.18;;;9.50;99.90;;;;;;5071045;28;20524;-56
2024/02/03 08:59:52;;;;;;;19.88;12.30;;;9.50;99.90;;;;;;5070776;28;20024;-55
2024/02/03 09:02:18;;;;;;;23.60;12.48;;;9.50;99.90;;;;;;5070430;28;20028;-56
2024/02/03 09:04:43;;;;;;;24.05;12.77;;;9.50;99.90;;;;;;5073617;28;20032;-56
2024/02/03 09:07:09;;;;;;;21.10;11.75;;;9.50;99.90;;;;;;5069501;28;20429;-56
2024/02/03 09:09:35;;;;;;;20.15;11.75;;;9.50;99.90;;;;;;5069726;28;20021;-56
2024/02/03 09:12:04;;;;;;;20.65;11.55;;;9.50;99.90;;;;;;5070022;28;20079;-55
2024/02/03 09:14:29;;;;;;;19.83;12.00;;;9.50;99.90;;;;;;5070307;28;20394;-55
2024/02/03 09:16:55;;;;;;;26.50;12.40;;;9.50;99.90;;;;;;5077443;28;20024;-56
2024/02/03 09:19:21;;;;;;;18.75;12.20;;;9.50;99.90;;;;;;5075267;28;20033;-56
2024/02/03 09:21:47;;;;;;;20.33;11.13;;;9.60;99.90;;;;;;5079033;28;20138;-55
2024/02/03 09:24:14;;;;;;;18.33;11.55;;;9.60;99.90;;;;;;5069735;28;20031;-56
2024/02/03 09:26:40;;;;;;;22.83;12.32;;;9.60;99.90;;;;;;5072655;28;20016;-56
2024/02/03 09:29:09;;;;;;;20.38;12.65;;;9.60;99.90;;;;;;5069861;28;20532;-56
2024/02/03 09:31:35;;;;;;;21.60;12.85;;;9.60;99.90;;;;;;5072094;28;20013;-55
2024/02/03 09:34:05;;;;;;;19.25;12.65;;;9.60;99.90;;;;;;5077179;28;20024;-55
2024/02/03 09:36:31;;;;;;;22.80;13.43;;;9.70;99.90;;;;;;5069763;28;20046;-56
2024/02/03 09:38:58;;;;;;;18.65;12.50;;;9.60;99.90;;;;;;5072186;28;20037;-55
2024/02/03 09:41:24;;;;;;;20.52;12.88;;;9.70;99.90;;;;;;5073930;28;20028;-55
2024/02/03 09:43:52;;;;;;;24.42;13.70;;;9.60;99.90;;;;;;5072866;28;20027;-56
2024/02/03 09:46:17;;;;;;;18.73;12.30;;;9.60;99.90;;;;;;5069700;28;20520;-55
2024/02/03 09:48:43;;;;;;;19.58;12.38;;;9.70;99.90;;;;;;5069441;28;20024;-55
2024/02/03 09:51:11;;;;;;;21.40;12.85;;;9.70;99.90;;;;;;5073513;28;20028;-55
2024/02/03 09:53:37;;;;;;;18.60;12.63;;;9.70;99.90;;;;;;5069412;28;20540;-55
2024/02/03 09:56:03;;;;;;;19.92;12.43;;;9.70;99.90;;;;;;5069678;28;20028;-55
2024/02/03 09:58:29;;;;;;;20.35;12.85;;;9.70;99.90;;;;;;5076881;28;20086;-56
2024/02/03 10:00:55;;;;;;;22.33;12.52;;;9.70;99.90;;;;;;5071760;28;20024;-56
2024/02/03 10:03:20;;;;;;;23.25;13.00;;;9.70;99.90;;;;;;5068556;28;20032;-55
2024/02/03 10:05:48;;;;;;;22.38;12.68;;;9.70;99.90;;;;;;5068419;28;20052;-56
2024/02/03 10:08:14;;;;;;;23.83;13.77;;;9.70;99.90;;;;;;5072117;28;20067;-56
2024/02/03 10:10:42;;;;;;;22.35;12.30;;;9.70;99.90;;;;;;5071938;28;20040;-56
2024/02/03 10:13:15;;;;;;;20.67;12.15;;;9.70;99.90;;;;;;5067229;28;20016;-56
2024/02/03 10:15:41;;;;;;;19.80;11.63;;;9.80;99.90;;;;;;5065221;28;20021;-55
2024/02/03 10:18:08;;;;;;;18.50;10.93;;;9.80;99.90;;;;;;5072246;28;20040;-56
2024/02/03 10:20:34;;;;;;;17.58;10.20;;;9.90;99.90;;;;;;5072876;28;20043;-56
2024/02/03 10:22:59;;;;;;;16.92;10.77;;;9.90;99.90;;;;;;5068909;28;20024;-55
2024/02/03 10:25:29;;;;;;;15.38;9.85;;;9.90;99.90;;;;;;5069459;28;20583;-56
2024/02/03 10:28:03;;;;;;;15.63;9.95;;;9.90;99.90;;;;;;5069477;28;20128;-56
2024/02/03 10:30:33;;;;;;;15.40;8.75;;;9.90;99.90;;;;;;5069308;28;20021;-55
2024/02/03 10:33:00;;;;;;;13.23;8.90;;;9.90;99.90;;;;;;5068920;28;20538;-55
2024/02/03 10:35:30;;;;;;;13.40;9.10;;;9.90;99.90;;;;;;5072082;28;20028;-55
2024/02/03 10:37:56;;;;;;;11.93;7.83;;;10.00;99.90;;;;;;5069286;28;20044;-55
2024/02/03 10:40:25;;;;;;;10.80;7.78;;;10.00;99.90;;;;;;5075480;28;20025;-55
2024/02/03 10:42:52;;;;;;;11.27;6.97;;;10.10;99.90;;;;;;5075069;28;20023;-55
2024/02/03 10:45:20;;;;;;;10.80;7.10;;;10.20;99.90;;;;;;5075562;28;20031;-55
2024/02/03 10:47:49;;;;;;;10.20;6.60;;;10.20;99.90;;;;;;5069158;28;20746;-55
2024/02/03 10:50:15;;;;;;;9.63;6.65;;;10.30;99.90;;;;;;5074304;28;20399;-55
2024/02/03 10:52:45;;;;;;;8.45;5.32;;;10.30;99.90;;;;;;5067281;28;20377;-55
2024/02/03 10:55:14;;;;;;;9.05;5.63;;;10.30;99.90;;;;;;5076373;28;20480;-56
2024/02/03 10:57:42;;;;;;;7.10;5.25;;;10.30;99.90;;;;;;5067502;28;20103;-55
2024/02/03 11:00:10;;;;;;;6.93;4.50;;;10.30;99.90;;;;;;5068114;28;20020;-55
2024/02/03 11:02:36;;;;;;;7.18;4.25;;;10.20;99.90;;;;;;5070743;28;20017;-55
2024/02/03 11:05:01;;;;;;;6.13;4.57;;;10.20;99.90;;;;;;5075611;28;20047;-55
2024/02/03 11:07:27;;;;;;;7.30;4.90;;;10.20;99.90;;;;;;5072890;28;20099;-55
2024/02/03 11:09:54;;;;;;;6.70;4.18;;;10.20;99.90;;;;;;5075650;28;20448;-55
2024/02/03 11:12:21;;;;;;;5.65;4.15;;;10.20;99.90;;;;;;5076819;28;20489;-55
2024/02/03 11:14:46;;;;;;;8.73;4.70;;;10.20;99.90;;;;;;5075169;28;20025;-55
2024/02/03 11:17:13;;;;;;;6.32;4.82;;;10.20;99.90;;;;;;5072195;28;20025;-55
2024/02/03 11:19:41;;;;;;;6.13;4.65;;;10.20;99.90;;;;;;5070889;28;20107;-55
2024/02/03 11:22:07;;;;;;;7.75;4.97;;;10.20;99.90;;;;;;5066744;28;20025;-55
2024/02/03 11:24:36;;;;;;;8.88;5.70;;;10.20;99.90;;;;;;5075191;28;20434;-56
2024/02/03 11:27:03;;;;;;;8.98;5.55;;;10.20;99.90;;;;;;5072569;28;20112;-55
2024/02/03 11:29:32;;;;;;;8.27;5.90;;;10.20;99.90;;;;;;5072227;28;20024;-55
2024/02/03 11:32:05;;;;;;;7.93;6.00;;;10.20;99.90;;;;;;5071792;28;20813;-55
2024/02/03 11:34:32;;;;;;;9.27;6.78;;;10.20;99.90;;;;;;5071921;28;20450;-55
2024/02/03 11:36:59;;;;;;;11.07;6.20;;;10.30;99.90;;;;;;5072223;28;20020;-56
2024/02/03 11:39:29;;;;;;;10.48;6.70;;;10.30;99.90;;;;;;5071875;28;20363;-55
2024/02/03 11:41:56;;;;;;;10.98;6.78;;;10.30;99.90;;;;;;5071986;28;20029;-55
2024/02/03 11:44:22;;;;;;;10.15;7.13;;;10.30;99.90;;;;;;5071584;28;20382;-55
2024/02/03 11:46:48;;;;;;;11.63;7.57;;;10.30;99.90;;;;;;5084882;28;20381;-56
2024/02/03 11:49:16;;;;;;;10.88;8.10;;;10.30;99.90;;;;;;5071626;28;20029;-56
2024/02/03 11:51:42;;;;;;;10.93;7.70;;;10.40;99.90;;;;;;5071317;28;20017;-57
2024/02/03 11:54:08;;;;;;;11.68;8.55;;;10.30;99.90;;;;;;5073503;28;20020;-55
2024/02/03 11:56:34;;;;;;;12.40;8.73;;;10.30;99.90;;;;;;5073886;28;20105;-57
2024/02/03 11:58:59;;;;;;;12.50;8.80;;;10.40;99.90;;;;;;5071627;28;20596;-56
2024/02/03 12:01:27;;;;;;;16.52;9.60;;;10.30;99.90;;;;;;5073946;28;20028;-56
2024/02/03 12:03:53;;;;;;;16.65;10.32;;;10.40;99.90;;;;;;5071309;28;20048;-56
2024/02/03 12:06:21;;;;;;;15.98;10.77;;;10.40;99.90;;;;;;5071485;28;20055;-55
2024/02/03 12:08:47;;;;;;;14.18;10.35;;;10.50;99.90;;;;;;5073795;28;20008;-57
2024/02/03 12:11:13;;;;;;;14.93;11.55;;;10.50;99.90;;;;;;5074598;28;20131;-56
2024/02/03 12:13:41;;;;;;;16.33;11.15;;;10.60;99.90;;;;;;5071041;28;20041;-56
2024/02/03 12:16:08;;;;;;;20.20;12.70;;;10.50;99.90;;;;;;5063497;28;20080;-56
2024/02/03 12:18:38;;;;;;;25.02;13.55;;;10.50;99.90;;;;;;5072336;28;20047;-56
2024/02/03 12:21:06;;;;;;;21.08;12.77;;;10.60;99.90;;;;;;5074404;28;20090;-56
2024/02/03 12:23:31;;;;;;;17.73;12.88;;;10.60;99.90;;;;;;5070919;28;20033;-55
2024/02/03 12:25:57;;;;;;;19.02;13.05;;;10.60;99.90;;;;;;5073336;28;20104;-55
2024/02/03 12:28:23;;;;;;;19.77;13.32;;;10.60;99.90;;;;;;5069851;28;20104;-55
2024/02/03 12:30:56;;;;;;;18.83;13.63;;;10.60;99.90;;;;;;5071141;28;20044;-55
2024/02/03 12:33:22;;;;;;;18.80;13.68;;;10.60;99.90;;;;;;5073063;28;20103;-55